sensor_id;sensor_type;location;lat;lon;timestamp;P1;durP1;ratioP1;P2;durP2;ratioP2
45932;SDS011;51011;46.790;17.184;2022-08-19T00:00:18;11.90;;;3.95;;
45932;SDS011;51011;46.790;17.184;2022-08-19T00:02:44;12.82;;;3.95;;
45932;SDS011;51011;46.790;17.184;2022-08-19T00:05:11;13.90;;;4.35;;
45932;SDS011;51011;46.790;17.184;2022-08-19T00:07:37;11.63;;;4.38;;
45932;SDS011;51011;46.790;17.184;2022-08-19T00:10:03;9.10;;;4.13;;
45932;SDS011;51011;46.790;17.184;2022-08-19T00:12:30;12.20;;;4.80;;
45932;SDS011;51011;46.790;17.184;2022-08-19T00:14:56;11.95;;;4.30;;
45932;SDS011;51011;46.790;17.184;2022-08-19T00:17:22;11.60;;;4.80;;
45932;SDS011;51011;46.790;17.184;2022-08-19T00:19:47;14.68;;;4.82;;
45932;SDS011;51011;46.790;17.184;2022-08-19T00:22:13;10.13;;;3.83;;
45932;SDS011;51011;46.790;17.184;2022-08-19T00:24:38;12.18;;;4.28;;
45932;SDS011;51011;46.790;17.184;2022-08-19T00:27:06;8.40;;;4.55;;
45932;SDS011;51011;46.790;17.184;2022-08-19T00:29:32;12.18;;;4.20;;
45932;SDS011;51011;46.790;17.184;2022-08-19T00:31:57;8.93;;;4.38;;
45932;SDS011;51011;46.790;17.184;2022-08-19T00:34:25;13.02;;;4.18;;
45932;SDS011;51011;46.790;17.184;2022-08-19T00:36:53;9.57;;;3.58;;
45932;SDS011;51011;46.790;17.184;2022-08-19T00:39:18;9.43;;;4.10;;
45932;SDS011;51011;46.790;17.184;2022-08-19T00:41:44;8.52;;;4.07;;
45932;SDS011;51011;46.790;17.184;2022-08-19T00:44:14;12.25;;;3.70;;
45932;SDS011;51011;46.790;17.184;2022-08-19T00:46:46;8.77;;;3.50;;
45932;SDS011;51011;46.790;17.184;2022-08-19T00:49:17;9.43;;;3.80;;
45932;SDS011;51011;46.790;17.184;2022-08-19T00:51:46;10.63;;;3.97;;
45932;SDS011;51011;46.790;17.184;2022-08-19T00:54:13;13.88;;;4.38;;
45932;SDS011;51011;46.790;17.184;2022-08-19T00:56:39;10.18;;;4.50;;
45932;SDS011;51011;46.790;17.184;2022-08-19T00:59:05;10.15;;;4.13;;
45932;SDS011;51011;46.790;17.184;2022-08-19T01:01:37;8.65;;;3.63;;
45932;SDS011;51011;46.790;17.184;2022-08-19T01:04:04;9.27;;;4.13;;
45932;SDS011;51011;46.790;17.184;2022-08-19T01:06:30;9.70;;;3.58;;
45932;SDS011;51011;46.790;17.184;2022-08-19T01:08:58;9.43;;;4.20;;
45932;SDS011;51011;46.790;17.184;2022-08-19T01:11:24;8.38;;;3.50;;
45932;SDS011;51011;46.790;17.184;2022-08-19T01:13:50;8.98;;;3.60;;
45932;SDS011;51011;46.790;17.184;2022-08-19T01:16:17;9.25;;;3.55;;
45932;SDS011;51011;46.790;17.184;2022-08-19T01:18:45;9.68;;;3.38;;
45932;SDS011;51011;46.790;17.184;2022-08-19T01:21:16;8.23;;;3.50;;
45932;SDS011;51011;46.790;17.184;2022-08-19T01:23:47;8.77;;;3.58;;
45932;SDS011;51011;46.790;17.184;2022-08-19T01:26:17;11.23;;;4.00;;
45932;SDS011;51011;46.790;17.184;2022-08-19T01:28:45;10.23;;;3.75;;
45932;SDS011;51011;46.790;17.184;2022-08-19T01:31:13;9.50;;;3.83;;
45932;SDS011;51011;46.790;17.184;2022-08-19T01:33:41;8.13;;;3.50;;
45932;SDS011;51011;46.790;17.184;2022-08-19T01:36:08;8.60;;;3.80;;
45932;SDS011;51011;46.790;17.184;2022-08-19T01:38:42;6.88;;;3.40;;
45932;SDS011;51011;46.790;17.184;2022-08-19T01:41:09;10.32;;;3.33;;
45932;SDS011;51011;46.790;17.184;2022-08-19T01:43:36;10.23;;;3.60;;
45932;SDS011;51011;46.790;17.184;2022-08-19T01:46:02;9.13;;;3.85;;
45932;SDS011;51011;46.790;17.184;2022-08-19T01:48:32;8.98;;;3.92;;
45932;SDS011;51011;46.790;17.184;2022-08-19T01:51:02;7.68;;;3.70;;
45932;SDS011;51011;46.790;17.184;2022-08-19T01:53:27;10.95;;;4.50;;
45932;SDS011;51011;46.790;17.184;2022-08-19T01:55:53;11.27;;;4.20;;
45932;SDS011;51011;46.790;17.184;2022-08-19T01:58:21;11.20;;;4.18;;
45932;SDS011;51011;46.790;17.184;2022-08-19T02:00:49;7.05;;;3.92;;
45932;SDS011;51011;46.790;17.184;2022-08-19T02:03:14;6.55;;;3.95;;
45932;SDS011;51011;46.790;17.184;2022-08-19T02:05:41;11.70;;;4.45;;
45932;SDS011;51011;46.790;17.184;2022-08-19T02:08:07;12.35;;;4.03;;
45932;SDS011;51011;46.790;17.184;2022-08-19T02:10:33;11.13;;;4.35;;
45932;SDS011;51011;46.790;17.184;2022-08-19T02:12:59;9.63;;;3.85;;
45932;SDS011;51011;46.790;17.184;2022-08-19T02:15:24;10.23;;;4.13;;
45932;SDS011;51011;46.790;17.184;2022-08-19T02:17:51;9.05;;;4.10;;
45932;SDS011;51011;46.790;17.184;2022-08-19T02:20:16;9.15;;;4.50;;
45932;SDS011;51011;46.790;17.184;2022-08-19T02:22:42;10.32;;;4.00;;
45932;SDS011;51011;46.790;17.184;2022-08-19T02:25:09;8.02;;;3.97;;
45932;SDS011;51011;46.790;17.184;2022-08-19T02:27:38;9.75;;;5.05;;
45932;SDS011;51011;46.790;17.184;2022-08-19T02:30:05;8.38;;;4.55;;
45932;SDS011;51011;46.790;17.184;2022-08-19T02:32:31;11.60;;;4.63;;
45932;SDS011;51011;46.790;17.184;2022-08-19T02:34:57;9.02;;;4.18;;
45932;SDS011;51011;46.790;17.184;2022-08-19T02:37:23;12.43;;;4.40;;
45932;SDS011;51011;46.790;17.184;2022-08-19T02:40:07;10.40;;;4.25;;
45932;SDS011;51011;46.790;17.184;2022-08-19T02:42:33;8.23;;;4.30;;
45932;SDS011;51011;46.790;17.184;2022-08-19T02:44:58;7.47;;;4.30;;
45932;SDS011;51011;46.790;17.184;2022-08-19T02:47:24;10.15;;;4.22;;
45932;SDS011;51011;46.790;17.184;2022-08-19T02:49:50;10.50;;;4.20;;
45932;SDS011;51011;46.790;17.184;2022-08-19T02:52:15;8.85;;;4.35;;
45932;SDS011;51011;46.790;17.184;2022-08-19T02:54:41;9.25;;;4.50;;
45932;SDS011;51011;46.790;17.184;2022-08-19T02:57:07;7.75;;;4.30;;
45932;SDS011;51011;46.790;17.184;2022-08-19T02:59:33;8.98;;;4.93;;
45932;SDS011;51011;46.790;17.184;2022-08-19T03:01:58;9.50;;;4.30;;
45932;SDS011;51011;46.790;17.184;2022-08-19T03:04:24;7.80;;;4.13;;
45932;SDS011;51011;46.790;17.184;2022-08-19T03:06:49;9.30;;;4.45;;
45932;SDS011;51011;46.790;17.184;2022-08-19T03:09:16;8.93;;;4.22;;
45932;SDS011;51011;46.790;17.184;2022-08-19T03:11:43;13.25;;;4.22;;
45932;SDS011;51011;46.790;17.184;2022-08-19T03:14:08;7.40;;;4.53;;
45932;SDS011;51011;46.790;17.184;2022-08-19T03:16:36;9.82;;;4.07;;
45932;SDS011;51011;46.790;17.184;2022-08-19T03:19:09;9.52;;;4.57;;
45932;SDS011;51011;46.790;17.184;2022-08-19T03:21:34;8.35;;;4.43;;
45932;SDS011;51011;46.790;17.184;2022-08-19T03:24:01;7.05;;;4.63;;
45932;SDS011;51011;46.790;17.184;2022-08-19T03:26:29;9.38;;;4.70;;
45932;SDS011;51011;46.790;17.184;2022-08-19T03:28:54;12.50;;;4.50;;
45932;SDS011;51011;46.790;17.184;2022-08-19T03:31:21;9.88;;;4.78;;
45932;SDS011;51011;46.790;17.184;2022-08-19T03:33:48;9.48;;;4.40;;
45932;SDS011;51011;46.790;17.184;2022-08-19T03:36:16;8.55;;;4.40;;
45932;SDS011;51011;46.790;17.184;2022-08-19T03:38:44;9.63;;;4.25;;
45932;SDS011;51011;46.790;17.184;2022-08-19T03:41:14;9.98;;;4.40;;
45932;SDS011;51011;46.790;17.184;2022-08-19T03:43:44;10.63;;;4.28;;
45932;SDS011;51011;46.790;17.184;2022-08-19T03:46:17;9.38;;;4.63;;
45932;SDS011;51011;46.790;17.184;2022-08-19T03:48:48;9.23;;;4.70;;
45932;SDS011;51011;46.790;17.184;2022-08-19T03:51:26;14.57;;;5.13;;
45932;SDS011;51011;46.790;17.184;2022-08-19T03:53:54;15.80;;;4.93;;
45932;SDS011;51011;46.790;17.184;2022-08-19T03:56:20;8.25;;;4.18;;
45932;SDS011;51011;46.790;17.184;2022-08-19T03:58:46;10.45;;;3.90;;
45932;SDS011;51011;46.790;17.184;2022-08-19T04:01:15;12.90;;;3.95;;
45932;SDS011;51011;46.790;17.184;2022-08-19T04:03:42;7.20;;;3.30;;
45932;SDS011;51011;46.790;17.184;2022-08-19T04:08:40;10.77;;;3.95;;
45932;SDS011;51011;46.790;17.184;2022-08-19T04:11:11;12.60;;;4.40;;
45932;SDS011;51011;46.790;17.184;2022-08-19T04:13:38;9.88;;;3.83;;
45932;SDS011;51011;46.790;17.184;2022-08-19T04:16:04;10.48;;;4.10;;
45932;SDS011;51011;46.790;17.184;2022-08-19T04:18:30;8.65;;;3.47;;
45932;SDS011;51011;46.790;17.184;2022-08-19T04:20:57;10.02;;;3.80;;
45932;SDS011;51011;46.790;17.184;2022-08-19T04:23:23;10.55;;;3.78;;
45932;SDS011;51011;46.790;17.184;2022-08-19T04:25:49;8.60;;;3.78;;
45932;SDS011;51011;46.790;17.184;2022-08-19T04:28:14;9.70;;;3.60;;
45932;SDS011;51011;46.790;17.184;2022-08-19T04:30:41;11.13;;;3.90;;
45932;SDS011;51011;46.790;17.184;2022-08-19T04:33:09;11.40;;;4.22;;
45932;SDS011;51011;46.790;17.184;2022-08-19T04:35:36;12.75;;;4.03;;
45932;SDS011;51011;46.790;17.184;2022-08-19T04:38:03;9.02;;;4.85;;
45932;SDS011;51011;46.790;17.184;2022-08-19T04:40:29;11.32;;;4.90;;
45932;SDS011;51011;46.790;17.184;2022-08-19T04:43:13;11.23;;;4.57;;
45932;SDS011;51011;46.790;17.184;2022-08-19T04:45:41;13.73;;;4.65;;
45932;SDS011;51011;46.790;17.184;2022-08-19T04:48:08;14.07;;;4.20;;
45932;SDS011;51011;46.790;17.184;2022-08-19T04:50:35;9.65;;;3.90;;
45932;SDS011;51011;46.790;17.184;2022-08-19T04:53:01;10.10;;;3.95;;
45932;SDS011;51011;46.790;17.184;2022-08-19T04:55:26;11.07;;;4.07;;
45932;SDS011;51011;46.790;17.184;2022-08-19T04:57:52;11.32;;;4.15;;
45932;SDS011;51011;46.790;17.184;2022-08-19T05:00:19;9.82;;;4.57;;
45932;SDS011;51011;46.790;17.184;2022-08-19T05:02:44;10.50;;;4.30;;
45932;SDS011;51011;46.790;17.184;2022-08-19T05:05:10;11.88;;;4.93;;
45932;SDS011;51011;46.790;17.184;2022-08-19T05:07:36;9.98;;;5.10;;
45932;SDS011;51011;46.790;17.184;2022-08-19T05:10:02;12.85;;;4.93;;
45932;SDS011;51011;46.790;17.184;2022-08-19T05:12:29;12.68;;;4.90;;
45932;SDS011;51011;46.790;17.184;2022-08-19T05:14:54;11.25;;;4.88;;
45932;SDS011;51011;46.790;17.184;2022-08-19T05:17:21;10.13;;;4.80;;
45932;SDS011;51011;46.790;17.184;2022-08-19T05:19:47;9.90;;;4.55;;
45932;SDS011;51011;46.790;17.184;2022-08-19T05:22:31;11.90;;;5.07;;
45932;SDS011;51011;46.790;17.184;2022-08-19T05:24:58;10.73;;;4.82;;
45932;SDS011;51011;46.790;17.184;2022-08-19T05:27:25;11.27;;;4.95;;
45932;SDS011;51011;46.790;17.184;2022-08-19T05:29:51;14.30;;;5.53;;
45932;SDS011;51011;46.790;17.184;2022-08-19T05:32:16;13.93;;;5.25;;
45932;SDS011;51011;46.790;17.184;2022-08-19T05:34:42;12.23;;;5.63;;
45932;SDS011;51011;46.790;17.184;2022-08-19T05:37:07;17.75;;;5.93;;
45932;SDS011;51011;46.790;17.184;2022-08-19T05:39:35;12.63;;;6.13;;
45932;SDS011;51011;46.790;17.184;2022-08-19T05:42:05;15.88;;;5.88;;
45932;SDS011;51011;46.790;17.184;2022-08-19T05:44:36;15.35;;;6.38;;
45932;SDS011;51011;46.790;17.184;2022-08-19T05:47:05;11.45;;;5.88;;
45932;SDS011;51011;46.790;17.184;2022-08-19T05:49:32;13.15;;;6.38;;
45932;SDS011;51011;46.790;17.184;2022-08-19T05:51:58;11.80;;;6.20;;
45932;SDS011;51011;46.790;17.184;2022-08-19T05:54:24;16.23;;;6.47;;
45932;SDS011;51011;46.790;17.184;2022-08-19T05:56:50;15.30;;;6.75;;
45932;SDS011;51011;46.790;17.184;2022-08-19T05:59:17;13.60;;;6.47;;
45932;SDS011;51011;46.790;17.184;2022-08-19T06:01:44;11.88;;;6.25;;
45932;SDS011;51011;46.790;17.184;2022-08-19T06:04:11;13.90;;;6.13;;
